sensor_id;sensor_type;location;lat;lon;timestamp;pressure;altitude;pressure_sealevel;temperature;humidity
6038;BME280;3047;42.600;23.470;2023-01-01T00:01:48;94415.13;;;6.60;100.00
6038;BME280;3047;42.600;23.470;2023-01-01T00:04:15;94410.13;;;6.57;100.00
6038;BME280;3047;42.600;23.470;2023-01-01T00:06:42;94427.72;;;6.63;100.00
6038;BME280;3047;42.600;23.470;2023-01-01T00:09:11;94426.03;;;6.63;100.00
6038;BME280;3047;42.600;23.470;2023-01-01T00:11:56;94383.19;;;6.37;100.00
6038;BME280;3047;42.600;23.470;2023-01-01T00:14:22;94415.03;;;6.46;100.00
6038;BME280;3047;42.600;23.470;2023-01-01T00:16:49;94413.44;;;6.56;100.00
6038;BME280;3047;42.600;23.470;2023-01-01T00:19:16;94412.63;;;6.57;100.00
6038;BME280;3047;42.600;23.470;2023-01-01T00:21:43;94414.34;;;6.65;100.00
6038;BME280;3047;42.600;23.470;2023-01-01T00:24:12;94413.59;;;6.74;100.00
6038;BME280;3047;42.600;23.470;2023-01-01T00:26:39;94418.53;;;6.66;100.00
6038;BME280;3047;42.600;23.470;2023-01-01T00:29:05;94418.50;;;6.63;100.00
6038;BME280;3047;42.600;23.470;2023-01-01T00:31:32;94426.75;;;6.46;100.00
6038;BME280;3047;42.600;23.470;2023-01-01T00:33:59;94430.94;;;6.47;100.00
6038;BME280;3047;42.600;23.470;2023-01-01T00:36:26;94425.84;;;6.39;100.00
6038;BME280;3047;42.600;23.470;2023-01-01T00:38:53;94437.69;;;6.55;100.00
6038;BME280;3047;42.600;23.470;2023-01-01T00:41:22;94431.00;;;6.54;100.00
6038;BME280;3047;42.600;23.470;2023-01-01T00:43:49;94432.59;;;6.48;100.00
6038;BME280;3047;42.600;23.470;2023-01-01T00:46:16;94429.25;;;6.47;100.00
6038;BME280;3047;42.600;23.470;2023-01-01T00:48:43;94436.81;;;6.52;100.00
6038;BME280;3047;42.600;23.470;2023-01-01T00:51:09;94439.44;;;6.61;100.00
6038;BME280;3047;42.600;23.470;2023-01-01T00:53:36;94439.25;;;6.44;100.00
6038;BME280;3047;42.600;23.470;2023-01-01T00:56:04;94440.75;;;6.21;100.00
6038;BME280;3047;42.600;23.470;2023-01-01T00:58:32;94438.13;;;6.10;100.00
6038;BME280;3047;42.600;23.470;2023-01-01T01:00:59;94439.69;;;6.02;100.00
6038;BME280;3047;42.600;23.470;2023-01-01T01:03:26;94428.84;;;6.01;100.00
6038;BME280;3047;42.600;23.470;2023-01-01T01:05:57;94418.00;;;6.05;100.00
6038;BME280;3047;42.600;23.470;2023-01-01T01:08:24;94423.81;;;6.01;100.00
6038;BME280;3047;42.600;23.470;2023-01-01T01:10:51;94411.81;;;5.77;100.00
6038;BME280;3047;42.600;23.470;2023-01-01T01:13:18;94417.72;;;5.81;100.00
6038;BME280;3047;42.600;23.470;2023-01-01T01:15:46;94419.56;;;5.92;100.00
6038;BME280;3047;42.600;23.470;2023-01-01T01:18:13;94385.22;;;5.90;100.00
6038;BME280;3047;42.600;23.470;2023-01-01T01:20:48;94420.56;;;6.11;100.00
6038;BME280;3047;42.600;23.470;2023-01-01T01:23:15;94407.78;;;5.90;100.00
6038;BME280;3047;42.600;23.470;2023-01-01T01:25:42;94409.41;;;5.86;100.00
6038;BME280;3047;42.600;23.470;2023-01-01T01:28:09;94412.94;;;6.01;100.00
6038;BME280;3047;42.600;23.470;2023-01-01T01:30:36;94406.94;;;5.91;100.00
6038;BME280;3047;42.600;23.470;2023-01-01T01:33:04;94399.66;;;6.11;100.00
6038;BME280;3047;42.600;23.470;2023-01-01T01:35:31;94393.88;;;6.16;100.00
6038;BME280;3047;42.600;23.470;2023-01-01T01:37:58;94402.19;;;6.15;100.00
6038;BME280;3047;42.600;23.470;2023-01-01T01:40:25;94407.13;;;6.05;100.00
6038;BME280;3047;42.600;23.470;2023-01-01T01:42:51;94420.56;;;6.10;100.00
6038;BME280;3047;42.600;23.470;2023-01-01T01:45:18;94424.81;;;6.17;100.00
6038;BME280;3047;42.600;23.470;2023-01-01T01:47:48;94420.66;;;6.21;100.00
6038;BME280;3047;42.600;23.470;2023-01-01T01:50:22;94419.06;;;6.30;100.00
6038;BME280;3047;42.600;23.470;2023-01-01T01:53:01;94392.94;;;6.07;100.00
6038;BME280;3047;42.600;23.470;2023-01-01T01:55:33;94417.38;;;6.25;100.00
6038;BME280;3047;42.600;23.470;2023-01-01T01:58:00;94399.69;;;6.14;100.00
6038;BME280;3047;42.600;23.470;2023-01-01T02:00:27;94421.34;;;6.04;100.00
6038;BME280;3047;42.600;23.470;2023-01-01T02:02:57;94423.06;;;6.10;100.00
6038;BME280;3047;42.600;23.470;2023-01-01T02:05:29;94390.38;;;6.02;100.00
6038;BME280;3047;42.600;23.470;2023-01-01T02:07:56;94404.53;;;5.99;100.00
6038;BME280;3047;42.600;23.470;2023-01-01T02:10:23;94407.13;;;6.05;100.00
6038;BME280;3047;42.600;23.470;2023-01-01T02:12:50;94404.72;;;6.12;100.00
6038;BME280;3047;42.600;23.470;2023-01-01T02:15:16;94407.28;;;6.23;100.00
6038;BME280;3047;42.600;23.470;2023-01-01T02:17:51;94417.25;;;6.15;100.00
6038;BME280;3047;42.600;23.470;2023-01-01T02:20:31;94424.78;;;6.12;100.00
6038;BME280;3047;42.600;23.470;2023-01-01T02:26:29;94421.53;;;6.24;100.00
6038;BME280;3047;42.600;23.470;2023-01-01T02:29:10;94436.56;;;6.21;100.00
6038;BME280;3047;42.600;23.470;2023-01-01T02:31:43;94427.19;;;6.06;100.00
6038;BME280;3047;42.600;23.470;2023-01-01T02:34:14;94430.31;;;5.87;100.00
6038;BME280;3047;42.600;23.470;2023-01-01T02:36:47;94431.13;;;5.87;100.00
6038;BME280;3047;42.600;23.470;2023-01-01T02:39:15;94431.78;;;5.71;100.00
6038;BME280;3047;42.600;23.470;2023-01-01T02:41:47;94413.03;;;5.38;100.00
6038;BME280;3047;42.600;23.470;2023-01-01T02:44:17;94426.00;;;5.75;100.00
6038;BME280;3047;42.600;23.470;2023-01-01T02:46:45;94419.41;;;5.83;100.00
6038;BME280;3047;42.600;23.470;2023-01-01T02:49:11;94427.16;;;6.03;100.00
6038;BME280;3047;42.600;23.470;2023-01-01T02:51:51;94428.03;;;6.04;100.00
6038;BME280;3047;42.600;23.470;2023-01-01T02:54:29;94419.72;;;6.08;100.00
6038;BME280;3047;42.600;23.470;2023-01-01T02:57:05;94413.75;;;5.97;100.00
6038;BME280;3047;42.600;23.470;2023-01-01T02:59:43;94383.50;;;5.86;100.00
6038;BME280;3047;42.600;23.470;2023-01-01T03:02:39;94379.47;;;5.99;100.00
6038;BME280;3047;42.600;23.470;2023-01-01T03:05:15;94411.28;;;6.03;100.00
6038;BME280;3047;42.600;23.470;2023-01-01T03:07:58;94365.81;;;5.72;100.00
6038;BME280;3047;42.600;23.470;2023-01-01T03:10:32;94411.34;;;6.09;100.00
6038;BME280;3047;42.600;23.470;2023-01-01T03:13:09;94408.00;;;6.10;100.00
6038;BME280;3047;42.600;23.470;2023-01-01T03:15:44;94415.59;;;6.16;100.00
6038;BME280;3047;42.600;23.470;2023-01-01T03:18:14;94418.13;;;6.19;100.00
6038;BME280;3047;42.600;23.470;2023-01-01T03:20:46;94415.56;;;6.13;100.00
6038;BME280;3047;42.600;23.470;2023-01-01T03:23:19;94426.50;;;6.19;100.00
6038;BME280;3047;42.600;23.470;2023-01-01T03:25:49;94427.13;;;5.97;100.00
6038;BME280;3047;42.600;23.470;2023-01-01T03:28:19;94334.31;;;5.19;100.00
6038;BME280;3047;42.600;23.470;2023-01-01T03:30:50;94415.16;;;5.78;100.00
6038;BME280;3047;42.600;23.470;2023-01-01T03:33:22;94409.31;;;5.77;100.00
6038;BME280;3047;42.600;23.470;2023-01-01T03:35:54;94400.78;;;5.61;100.00
6038;BME280;3047;42.600;23.470;2023-01-01T03:38:25;94385.75;;;5.63;100.00
6038;BME280;3047;42.600;23.470;2023-01-01T03:40:58;94408.53;;;5.83;100.00
6038;BME280;3047;42.600;23.470;2023-01-01T03:43:33;94417.81;;;5.88;100.00
6038;BME280;3047;42.600;23.470;2023-01-01T03:46:06;94404.13;;;5.62;100.00
6038;BME280;3047;42.600;23.470;2023-01-01T03:48:34;94415.06;;;5.68;100.00
6038;BME280;3047;42.600;23.470;2023-01-01T03:51:24;94411.00;;;5.78;100.00
6038;BME280;3047;42.600;23.470;2023-01-01T03:53:55;94416.84;;;5.79;100.00
6038;BME280;3047;42.600;23.470;2023-01-01T03:56:32;94395.47;;;5.38;100.00
6038;BME280;3047;42.600;23.470;2023-01-01T03:59:06;94414.09;;;5.59;100.00
6038;BME280;3047;42.600;23.470;2023-01-01T04:01:39;94413.16;;;5.49;100.00
6038;BME280;3047;42.600;23.470;2023-01-01T04:04:08;94410.72;;;5.54;100.00
6038;BME280;3047;42.600;23.470;2023-01-01T04:06:35;94412.31;;;5.47;100.00
6038;BME280;3047;42.600;23.470;2023-01-01T04:09:03;94417.97;;;5.32;100.00
6038;BME280;3047;42.600;23.470;2023-01-01T04:11:34;94396.84;;;5.13;100.00
6038;BME280;3047;42.600;23.470;2023-01-01T04:14:27;94415.34;;;5.23;100.00
6038;BME280;3047;42.600;23.470;2023-01-01T04:16:56;94406.13;;;5.20;100.00
6038;BME280;3047;42.600;23.470;2023-01-01T04:19:23;94400.19;;;5.14;100.00
6038;BME280;3047;42.600;23.470;2023-01-01T04:21:50;94405.34;;;5.23;100.00
6038;BME280;3047;42.600;23.470;2023-01-01T04:24:17;94415.56;;;5.40;100.00
6038;BME280;3047;42.600;23.470;2023-01-01T04:26:44;94422.16;;;5.32;100.00
6038;BME280;3047;42.600;23.470;2023-01-01T04:29:11;94411.06;;;5.16;100.00
6038;BME280;3047;42.600;23.470;2023-01-01T04:31:38;94428.84;;;5.34;100.00
6038;BME280;3047;42.600;23.470;2023-01-01T04:34:06;94393.41;;;5.05;100.00
6038;BME280;3047;42.600;23.470;2023-01-01T04:36:33;94430.44;;;5.29;100.00
6038;BME280;3047;42.600;23.470;2023-01-01T04:39:00;94433.84;;;5.31;100.00
6038;BME280;3047;42.600;23.470;2023-01-01T04:41:27;94422.03;;;5.24;100.00
6038;BME280;3047;42.600;23.470;2023-01-01T04:43:54;94443.03;;;5.31;100.00
6038;BME280;3047;42.600;23.470;2023-01-01T04:46:21;94442.09;;;5.26;100.00
6038;BME280;3047;42.600;23.470;2023-01-01T04:48:49;94440.25;;;5.11;100.00
6038;BME280;3047;42.600;23.470;2023-01-01T04:51:18;94434.09;;;4.90;100.00
6038;BME280;3047;42.600;23.470;2023-01-01T04:53:45;94437.47;;;4.92;100.00
6038;BME280;3047;42.600;23.470;2023-01-01T04:56:14;94414.19;;;5.00;100.00
6038;BME280;3047;42.600;23.470;2023-01-01T04:58:42;94432.63;;;5.05;100.00
6038;BME280;3047;42.600;23.470;2023-01-01T05:01:14;94431.00;;;5.10;100.00
6038;BME280;3047;42.600;23.470;2023-01-01T05:03:41;94429.13;;;4.93;100.00
6038;BME280;3047;42.600;23.470;2023-01-01T05:06:09;94391.22;;;4.69;100.00
6038;BME280;3047;42.600;23.470;2023-01-01T05:08:39;94423.78;;;4.70;100.00
6038;BME280;3047;42.600;23.470;2023-01-01T05:11:08;94390.06;;;4.47;100.00
6038;BME280;3047;42.600;23.470;2023-01-01T05:13:36;94406.38;;;4.78;100.00
6038;BME280;3047;42.600;23.470;2023-01-01T05:16:04;94418.78;;;4.72;100.00
6038;BME280;3047;42.600;23.470;2023-01-01T05:18:31;94392.69;;;4.56;100.00
6038;BME280;3047;42.600;23.470;2023-01-01T05:20:59;94428.03;;;4.78;100.00
6038;BME280;3047;42.600;23.470;2023-01-01T05:23:26;94419.09;;;4.90;100.00
6038;BME280;3047;42.600;23.470;2023-01-01T05:25:56;94395.06;;;4.47;100.00
6038;BME280;3047;42.600;23.470;2023-01-01T05:28:23;94434.41;;;4.57;100.00
6038;BME280;3047;42.600;23.470;2023-01-01T05:30:50;94430.47;;;4.73;100.00
6038;BME280;3047;42.600;23.470;2023-01-01T05:33:18;94434.19;;;4.96;100.00
6038;BME280;3047;42.600;23.470;2023-01-01T05:35:45;94415.88;;;5.01;100.00
6038;BME280;3047;42.600;23.470;2023-01-01T05:38:11;94385.41;;;4.70;100.00
6038;BME280;3047;42.600;23.470;2023-01-01T05:40:38;94437.47;;;4.94;100.00
6038;BME280;3047;42.600;23.470;2023-01-01T05:43:06;94445.97;;;5.05;100.00
6038;BME280;3047;42.600;23.470;2023-01-01T05:45:33;94427.88;;;4.65;100.00
6038;BME280;3047;42.600;23.470;2023-01-01T05:48:00;94450.31;;;4.61;100.00
6038;BME280;3047;42.600;23.470;2023-01-01T05:50:28;94447.16;;;4.71;100.00
6038;BME280;3047;42.600;23.470;2023-01-01T05:52:55;94388.41;;;4.49;100.00
6038;BME280;3047;42.600;23.470;2023-01-01T05:55:22;94446.13;;;4.60;100.00
6038;BME280;3047;42.600;23.470;2023-01-01T05:57:48;94409.19;;;4.43;100.00
6038;BME280;3047;42.600;23.470;2023-01-01T06:00:17;94434.72;;;4.77;100.00
6038;BME280;3047;42.600;23.470;2023-01-01T06:02:43;94430.97;;;4.51;100.00
6038;BME280;3047;42.600;23.470;2023-01-01T06:05:10;94431.78;;;4.50;100.00
6038;BME280;3047;42.600;23.470;2023-01-01T06:07:37;94435.41;;;4.67;100.00
6038;BME280;3047;42.600;23.470;2023-01-01T06:10:04;94420.91;;;4.47;100.00
6038;BME280;3047;42.600;23.470;2023-01-01T06:12:31;94390.56;;;4.26;100.00
6038;BME280;3047;42.600;23.470;2023-01-01T06:14:58;94389.72;;;4.26;100.00
6038;BME280;3047;42.600;23.470;2023-01-01T06:17:26;94411.81;;;4.53;100.00
6038;BME280;3047;42.600;23.470;2023-01-01T06:19:53;94435.28;;;4.58;100.00
6038;BME280;3047;42.600;23.470;2023-01-01T06:22:19;94435.88;;;4.44;100.00
6038;BME280;3047;42.600;23.470;2023-01-01T06:24:46;94445.94;;;4.49;100.00
6038;BME280;3047;42.600;23.470;2023-01-01T06:27:13;94452.16;;;4.71;100.00
6038;BME280;3047;42.600;23.470;2023-01-01T06:29:39;94410.28;;;4.61;100.00
6038;BME280;3047;42.600;23.470;2023-01-01T06:32:06;94449.97;;;4.91;100.00
6038;BME280;3047;42.600;23.470;2023-01-01T06:34:34;94456.53;;;4.83;100.00
6038;BME280;3047;42.600;23.470;2023-01-01T06:37:01;94427.78;;;4.58;100.00
6038;BME280;3047;42.600;23.470;2023-01-01T06:39:28;94464.75;;;4.77;100.00
6038;BME280;3047;42.600;23.470;2023-01-01T06:41:54;94443.44;;;4.47;100.00
6038;BME280;3047;42.600;23.470;2023-01-01T06:44:21;94473.00;;;4.70;100.00
6038;BME280;3047;42.600;23.470;2023-01-01T06:46:48;94473.84;;;4.72;100.00
6038;BME280;3047;42.600;23.470;2023-01-01T06:49:14;94473.78;;;4.67;100.00
6038;BME280;3047;42.600;23.470;2023-01-01T06:51:42;94475.59;;;4.78;100.00
6038;BME280;3047;42.600;23.470;2023-01-01T06:54:10;94453.69;;;4.63;100.00
6038;BME280;3047;42.600;23.470;2023-01-01T06:56:37;94488.28;;;4.87;100.00
6038;BME280;3047;42.600;23.470;2023-01-01T06:59:04;94488.13;;;4.78;100.00
6038;BME280;3047;42.600;23.470;2023-01-01T07:01:32;94485.78;;;4.88;100.00
6038;BME280;3047;42.600;23.470;2023-01-01T07:04:02;94484.25;;;4.98;100.00
6038;BME280;3047;42.600;23.470;2023-01-01T07:06:31;94490.28;;;5.08;100.00
6038;BME280;3047;42.600;23.470;2023-01-01T07:09:00;94443.94;;;4.78;100.00
6038;BME280;3047;42.600;23.470;2023-01-01T07:11:27;94489.56;;;5.15;100.00
6038;BME280;3047;42.600;23.470;2023-01-01T07:13:54;94485.38;;;5.17;100.00
6038;BME280;3047;42.600;23.470;2023-01-01T07:16:21;94494.63;;;5.19;100.00
6038;BME280;3047;42.600;23.470;2023-01-01T07:18:49;94504.66;;;5.21;100.00
6038;BME280;3047;42.600;23.470;2023-01-01T07:21:26;94453.91;;;4.75;100.00
6038;BME280;3047;42.600;23.470;2023-01-01T07:23:54;94504.28;;;4.96;100.00
6038;BME280;3047;42.600;23.470;2023-01-01T07:26:23;94466.72;;;4.95;100.00
6038;BME280;3047;42.600;23.470;2023-01-01T07:28:50;94487.06;;;5.18;100.00
6038;BME280;3047;42.600;23.470;2023-01-01T07:31:17;94477.88;;;5.15;100.00
6038;BME280;3047;42.600;23.470;2023-01-01T07:33:44;94488.78;;;5.20;100.00
6038;BME280;3047;42.600;23.470;2023-01-01T07:36:11;94486.22;;;5.16;100.00
6038;BME280;3047;42.600;23.470;2023-01-01T07:38:38;94497.31;;;5.33;100.00
6038;BME280;3047;42.600;23.470;2023-01-01T07:41:04;94488.13;;;5.31;100.00
6038;BME280;3047;42.600;23.470;2023-01-01T07:43:33;94488.25;;;5.41;100.00
6038;BME280;3047;42.600;23.470;2023-01-01T07:45:59;94491.59;;;5.42;100.00
6038;BME280;3047;42.600;23.470;2023-01-01T07:48:27;94484.06;;;5.40;100.00
6038;BME280;3047;42.600;23.470;2023-01-01T07:50:54;94501.59;;;5.42;100.00
6038;BME280;3047;42.600;23.470;2023-01-01T07:53:20;94504.16;;;5.43;100.00
6038;BME280;3047;42.600;23.470;2023-01-01T07:55:47;94493.41;;;5.54;100.00
6038;BME280;3047;42.600;23.470;2023-01-01T07:58:14;94493.53;;;5.63;100.00
6038;BME280;3047;42.600;23.470;2023-01-01T08:00:44;94471.72;;;5.56;100.00
6038;BME280;3047;42.600;23.470;2023-01-01T08:03:11;94496.28;;;5.81;100.00
6038;BME280;3047;42.600;23.470;2023-01-01T08:05:38;94498.72;;;5.77;100.00
6038;BME280;3047;42.600;23.470;2023-01-01T08:08:04;94474.31;;;5.60;100.00
6038;BME280;3047;42.600;23.470;2023-01-01T08:10:31;94486.84;;;5.60;100.00
6038;BME280;3047;42.600;23.470;2023-01-01T08:12:59;94496.13;;;5.70;100.00
6038;BME280;3047;42.600;23.470;2023-01-01T08:15:25;94493.78;;;5.83;100.00
6038;BME280;3047;42.600;23.470;2023-01-01T08:17:56;94495.72;;;6.01;100.00
6038;BME280;3047;42.600;23.470;2023-01-01T08:20:23;94468.03;;;5.93;100.00
6038;BME280;3047;42.600;23.470;2023-01-01T08:22:50;94504.31;;;6.23;100.00
6038;BME280;3047;42.600;23.470;2023-01-01T08:25:16;94505.97;;;6.22;100.00
6038;BME280;3047;42.600;23.470;2023-01-01T08:27:43;94481.69;;;6.16;100.00
6038;BME280;3047;42.600;23.470;2023-01-01T08:30:12;94445.63;;;6.08;100.00
6038;BME280;3047;42.600;23.470;2023-01-01T08:32:39;94498.69;;;6.48;100.00
6038;BME280;3047;42.600;23.470;2023-01-01T08:35:08;94509.78;;;6.67;100.00
6038;BME280;3047;42.600;23.470;2023-01-01T08:37:34;94512.34;;;6.75;100.00
6038;BME280;3047;42.600;23.470;2023-01-01T08:40:01;94510.69;;;6.74;100.00
6038;BME280;3047;42.600;23.470;2023-01-01T08:42:28;94519.06;;;6.76;100.00
6038;BME280;3047;42.600;23.470;2023-01-01T08:44:55;94510.66;;;6.72;100.00
6038;BME280;3047;42.600;23.470;2023-01-01T08:47:23;94479.47;;;6.47;100.00
6038;BME280;3047;42.600;23.470;2023-01-01T08:49:51;94518.25;;;6.77;100.00
6038;BME280;3047;42.600;23.470;2023-01-01T08:52:20;94509.13;;;6.85;100.00
6038;BME280;3047;42.600;23.470;2023-01-01T08:54:47;94505.81;;;6.90;100.00
6038;BME280;3047;42.600;23.470;2023-01-01T08:57:14;94456.22;;;6.65;100.00
6038;BME280;3047;42.600;23.470;2023-01-01T08:59:40;94509.28;;;7.06;100.00
6038;BME280;3047;42.600;23.470;2023-01-01T09:02:08;94494.13;;;6.97;100.00
6038;BME280;3047;42.600;23.470;2023-01-01T09:04:35;94406.72;;;6.55;100.00
6038;BME280;3047;42.600;23.470;2023-01-01T09:07:02;94428.59;;;6.68;100.00
6038;BME280;3047;42.600;23.470;2023-01-01T09:09:30;94508.56;;;7.21;100.00
6038;BME280;3047;42.600;23.470;2023-01-01T09:11:58;94498.53;;;7.26;100.00
6038;BME280;3047;42.600;23.470;2023-01-01T09:14:30;94500.22;;;7.33;100.00
6038;BME280;3047;42.600;23.470;2023-01-01T09:16:57;94492.69;;;7.31;100.00
6038;BME280;3047;42.600;23.470;2023-01-01T09:19:24;94484.34;;;7.35;100.00
6038;BME280;3047;42.600;23.470;2023-01-01T09:21:51;94475.97;;;7.36;100.00
6038;BME280;3047;42.600;23.470;2023-01-01T09:24:18;94473.50;;;7.42;100.00
6038;BME280;3047;42.600;23.470;2023-01-01T09:26:46;94473.53;;;7.49;100.00
6038;BME280;3047;42.600;23.470;2023-01-01T09:29:13;94469.38;;;7.54;100.00
6038;BME280;3047;42.600;23.470;2023-01-01T09:31:43;94471.06;;;7.58;100.00
6038;BME280;3047;42.600;23.470;2023-01-01T09:34:09;94472.78;;;7.62;100.00
6038;BME280;3047;42.600;23.470;2023-01-01T09:36:36;94468.63;;;7.70;100.00
6038;BME280;3047;42.600;23.470;2023-01-01T09:39:03;94349.28;;;6.99;100.00
6038;BME280;3047;42.600;23.470;2023-01-01T09:41:59;94456.09;;;7.79;100.00
6038;BME280;3047;42.600;23.470;2023-01-01T09:47:31;94425.88;;;7.72;100.00
6038;BME280;3047;42.600;23.470;2023-01-01T09:50:02;94458.66;;;7.96;100.00
6038;BME280;3047;42.600;23.470;2023-01-01T09:52:36;94462.03;;;7.98;100.00
6038;BME280;3047;42.600;23.470;2023-01-01T09:55:14;94457.81;;;7.91;100.00
6038;BME280;3047;42.600;23.470;2023-01-01T09:57:44;94422.47;;;7.69;100.00
6038;BME280;3047;42.600;23.470;2023-01-01T10:00:15;94452.75;;;7.89;100.00
6038;BME280;3047;42.600;23.470;2023-01-01T10:02:52;94461.16;;;7.90;100.00
6038;BME280;3047;42.600;23.470;2023-01-01T10:05:28;94459.47;;;7.92;100.00
6038;BME280;3047;42.600;23.470;2023-01-01T10:08:01;94440.97;;;7.78;100.00
6038;BME280;3047;42.600;23.470;2023-01-01T10:10:35;94463.72;;;8.02;100.00
6038;BME280;3047;42.600;23.470;2023-01-01T10:13:15;94467.06;;;7.98;100.00
6038;BME280;3047;42.600;23.470;2023-01-01T10:15:52;94446.91;;;7.95;100.00
6038;BME280;3047;42.600;23.470;2023-01-01T10:18:23;94452.81;;;8.05;100.00
6038;BME280;3047;42.600;23.470;2023-01-01T10:20:57;94430.16;;;7.99;100.00
6038;BME280;3047;42.600;23.470;2023-01-01T10:23:32;94446.97;;;8.18;100.00
6038;BME280;3047;42.600;23.470;2023-01-01T10:26:10;94397.44;;;7.99;100.00
6038;BME280;3047;42.600;23.470;2023-01-01T10:28:45;94419.31;;;8.23;100.00
6038;BME280;3047;42.600;23.470;2023-01-01T10:31:16;94438.66;;;8.39;100.00
6038;BME280;3047;42.600;23.470;2023-01-01T10:33:44;94442.03;;;8.47;100.00
6038;BME280;3047;42.600;23.470;2023-01-01T10:36:13;94384.03;;;8.18;100.00
6038;BME280;3047;42.600;23.470;2023-01-01T10:38:41;94440.38;;;8.64;100.00
6038;BME280;3047;42.600;23.470;2023-01-01T10:41:09;94438.69;;;8.70;100.00
6038;BME280;3047;42.600;23.470;2023-01-01T10:43:36;94442.88;;;8.71;100.00
6038;BME280;3047;42.600;23.470;2023-01-01T10:46:04;94398.38;;;8.48;100.00
6038;BME280;3047;42.600;23.470;2023-01-01T10:48:32;94407.63;;;8.60;100.00
6038;BME280;3047;42.600;23.470;2023-01-01T10:51:02;94383.28;;;8.57;100.00
6038;BME280;3047;42.600;23.470;2023-01-01T10:53:31;94418.50;;;9.03;100.00
6038;BME280;3047;42.600;23.470;2023-01-01T10:56:10;94416.00;;;9.12;100.00
6038;BME280;3047;42.600;23.470;2023-01-01T10:58:40;94407.53;;;9.27;100.00
6038;BME280;3047;42.600;23.470;2023-01-01T11:01:10;94399.09;;;9.47;100.00
6038;BME280;3047;42.600;23.470;2023-01-01T11:03:52;94368.75;;;9.65;100.00
6038;BME280;3047;42.600;23.470;2023-01-01T11:06:21;94396.22;;;10.23;100.00
6038;BME280;3047;42.600;23.470;2023-01-01T11:08:49;94387.34;;;10.87;100.00
6038;BME280;3047;42.600;23.470;2023-01-01T11:11:24;94357.56;;;11.17;100.00
6038;BME280;3047;42.600;23.470;2023-01-01T11:13:54;94324.59;;;11.27;100.00
6038;BME280;3047;42.600;23.470;2023-01-01T11:16:23;94395.63;;;11.81;99.83
6038;BME280;3047;42.600;23.470;2023-01-01T11:18:50;94399.63;;;12.04;97.85
6038;BME280;3047;42.600;23.470;2023-01-01T11:21:20;94390.22;;;12.10;96.66
6038;BME280;3047;42.600;23.470;2023-01-01T11:23:48;94393.84;;;11.93;95.85
6038;BME280;3047;42.600;23.470;2023-01-01T11:26:21;94385.66;;;11.69;96.40
6038;BME280;3047;42.600;23.470;2023-01-01T11:29:02;94339.84;;;11.20;97.51
6038;BME280;3047;42.600;23.470;2023-01-01T11:31:37;94342.56;;;11.03;98.28
6038;BME280;3047;42.600;23.470;2023-01-01T11:34:14;94393.88;;;11.09;98.92
6038;BME280;3047;42.600;23.470;2023-01-01T11:36:47;94385.47;;;11.06;99.22
6038;BME280;3047;42.600;23.470;2023-01-01T11:39:20;94380.53;;;10.98;99.60
6038;BME280;3047;42.600;23.470;2023-01-01T11:41:50;94383.94;;;10.94;99.91
6038;BME280;3047;42.600;23.470;2023-01-01T11:44:26;94387.34;;;10.87;100.00
6038;BME280;3047;42.600;23.470;2023-01-01T11:46:57;94343.00;;;10.54;100.00
6038;BME280;3047;42.600;23.470;2023-01-01T11:49:28;94327.00;;;10.49;100.00
6038;BME280;3047;42.600;23.470;2023-01-01T11:51:56;94371.56;;;10.62;100.00
6038;BME280;3047;42.600;23.470;2023-01-01T11:54:27;94368.22;;;10.58;100.00
6038;BME280;3047;42.600;23.470;2023-01-01T11:56:59;94350.63;;;10.46;100.00
6038;BME280;3047;42.600;23.470;2023-01-01T11:59:35;94329.75;;;10.21;100.00
6038;BME280;3047;42.600;23.470;2023-01-01T12:02:11;94354.03;;;10.42;100.00
6038;BME280;3047;42.600;23.470;2023-01-01T12:04:43;94364.19;;;10.34;100.00
6038;BME280;3047;42.600;23.470;2023-01-01T12:07:15;94349.09;;;10.22;100.00
6038;BME280;3047;42.600;23.470;2023-01-01T12:09:46;94352.44;;;10.27;100.00
6038;BME280;3047;42.600;23.470;2023-01-01T12:12:22;94323.88;;;10.18;100.00
6038;BME280;3047;42.600;23.470;2023-01-01T12:14:56;94348.25;;;10.25;100.00
6038;BME280;3047;42.600;23.470;2023-01-01T12:17:31;94345.75;;;10.19;100.00
6038;BME280;3047;42.600;23.470;2023-01-01T12:20:02;94347.44;;;10.16;100.00
6038;BME280;3047;42.600;23.470;2023-01-01T12:22:30;94343.25;;;10.12;100.00
6038;BME280;3047;42.600;23.470;2023-01-01T12:24:57;94321.47;;;10.01;100.00
6038;BME280;3047;42.600;23.470;2023-01-01T12:27:40;94339.84;;;10.16;100.00
6038;BME280;3047;42.600;23.470;2023-01-01T12:30:17;94340.69;;;10.19;100.00
6038;BME280;3047;42.600;23.470;2023-01-01T12:32:57;94341.50;;;10.30;100.00
6038;BME280;3047;42.600;23.470;2023-01-01T12:35:39;94332.09;;;10.44;100.00
6038;BME280;3047;42.600;23.470;2023-01-01T12:38:18;94334.53;;;10.59;100.00
6038;BME280;3047;42.600;23.470;2023-01-01T12:40:57;94342.03;;;10.67;100.00
6038;BME280;3047;42.600;23.470;2023-01-01T12:43:36;94334.38;;;10.75;100.00
6038;BME280;3047;42.600;23.470;2023-01-01T12:46:18;94337.72;;;10.78;100.00
6038;BME280;3047;42.600;23.470;2023-01-01T12:48:59;94339.47;;;10.69;100.00
6038;BME280;3047;42.600;23.470;2023-01-01T12:51:36;94326.97;;;10.58;100.00
6038;BME280;3047;42.600;23.470;2023-01-01T12:57:02;94331.13;;;10.62;100.00
6038;BME280;3047;42.600;23.470;2023-01-01T12:59:35;94341.19;;;10.65;100.00
6038;BME280;3047;42.600;23.470;2023-01-01T13:02:13;94337.00;;;10.66;100.00
6038;BME280;3047;42.600;23.470;2023-01-01T13:04:44;94315.22;;;10.51;100.00
6038;BME280;3047;42.600;23.470;2023-01-01T13:07:12;94342.06;;;10.61;100.00
6038;BME280;3047;42.600;23.470;2023-01-01T13:09:43;94342.13;;;10.58;100.00
6038;BME280;3047;42.600;23.470;2023-01-01T13:12:15;94343.84;;;10.54;100.00
6038;BME280;3047;42.600;23.470;2023-01-01T13:14:44;94344.75;;;10.43;100.00
6038;BME280;3047;42.600;23.470;2023-01-01T13:17:17;94349.00;;;10.36;100.00
6038;BME280;3047;42.600;23.470;2023-01-01T13:19:47;94349.91;;;10.30;100.00
6038;BME280;3047;42.600;23.470;2023-01-01T13:22:37;94347.38;;;10.29;100.00
6038;BME280;3047;42.600;23.470;2023-01-01T13:25:18;94344.09;;;10.11;100.00
6038;BME280;3047;42.600;23.470;2023-01-01T13:28:09;94343.34;;;9.99;100.00
6038;BME280;3047;42.600;23.470;2023-01-01T13:30:48;94342.56;;;9.87;100.00
6038;BME280;3047;42.600;23.470;2023-01-01T13:33:17;94267.16;;;9.40;100.00
6038;BME280;3047;42.600;23.470;2023-01-01T13:36:31;94344.28;;;9.82;100.00